Time;durP1;ratioP1;P1;durP2;ratioP2;P2;SDS_P1;SDS_P2;PMS_P1;PMS_P2;Temp;Humidity;BMP_temperature;BMP_pressure;BME280_temperature;BME280_humidity;BME280_pressure;Samples;Min_cycle;Max_cycle;Signal;HPM_P1;HPM_P2
2023/10/03 07:23:23;;;;;;;10.55;6.88;;;;;;;-145.79;90.09;76690.56;5292476;28;20357;-77
2023/10/03 07:25:57;;;;;;;12.18;6.10;;;;;;;-145.79;91.74;76703.28;5276921;28;20486;-78
2023/10/03 07:28:28;;;;;;;8.90;6.22;;;;;;;-145.79;93.87;76713.88;5280092;28;20027;-73
2023/10/03 07:30:59;;;;;;;11.43;7.47;;;;;;;-145.79;95.21;76716.00;5275259;28;20100;-75
2023/10/03 07:33:31;;;;;;;9.27;6.63;;;;;;;-145.79;95.41;76703.28;5279014;28;20051;-79
2023/10/03 07:36:06;;;;;;;16.85;14.98;;;;;;;-145.79;95.57;76711.75;5276362;28;20027;-81
2023/10/03 07:38:37;;;;;;;9.88;6.95;;;;;;;-145.79;95.00;76707.53;5276357;28;20025;-77
2023/10/03 07:41:09;;;;;;;10.43;7.10;;;;;;;-145.79;94.84;76696.94;5271587;28;20107;-81
2023/10/03 07:43:41;;;;;;;10.32;6.35;;;;;;;-145.79;94.35;76701.16;5292022;28;20028;-85
2023/10/03 07:46:13;;;;;;;9.45;6.53;;;;;;;-145.79;93.92;76711.75;5297839;28;20025;-85
2023/10/03 07:48:44;;;;;;;8.98;6.38;;;;;;;-145.79;93.30;76709.66;5291817;28;20059;-86
2023/10/03 07:51:16;;;;;;;12.13;6.65;;;;;;;-145.79;92.73;76711.75;5284066;28;20036;-77
2023/10/03 07:53:51;;;;;;;8.65;6.55;;;;;;;-145.79;92.19;76718.13;5279683;28;20033;-86
2023/10/03 07:56:25;;;;;;;11.40;6.05;;;;;;;-145.79;91.97;76718.13;5282842;28;20040;-86
2023/10/03 07:59:01;;;;;;;10.75;6.70;;;;;;;-145.79;91.59;76720.25;5279684;28;20076;-87
2023/10/03 08:01:32;;;;;;;9.90;5.63;;;;;;;-145.79;91.45;76707.53;5280533;28;20500;-85
2023/10/03 08:04:08;;;;;;;8.57;5.88;;;;;;;-145.79;91.34;76720.25;5282038;28;20112;-84
2023/10/03 08:06:42;;;;;;;7.30;6.20;;;;;;;-145.79;91.58;76720.25;5284746;28;20423;-85
2023/10/03 08:09:15;;;;;;;7.90;6.35;;;;;;;-145.79;91.45;76732.97;5289706;28;20150;-84
2023/10/03 08:11:47;;;;;;;10.52;6.53;;;;;;;-145.79;92.13;76741.44;5289878;28;20036;-85
2023/10/03 08:14:18;;;;;;;10.60;6.40;;;;;;;-145.79;93.62;76760.50;5291299;28;20035;-84
2023/10/03 08:16:51;;;;;;;10.73;9.63;;;;;;;-145.79;94.77;76775.34;5286165;28;20067;-81
2023/10/03 08:19:25;;;;;;;10.27;7.03;;;;;;;-145.79;95.89;76800.78;5273942;28;20032;-83
2023/10/03 08:21:58;;;;;;;9.95;5.38;;;;;;;-145.79;94.73;76828.31;5288853;28;20126;-83
2023/10/03 08:24:29;;;;;;;10.60;5.28;;;;;;;-145.79;95.75;76838.94;5300586;28;20024;-84
2023/10/03 08:27:02;;;;;;;13.18;6.05;;;;;;;-145.79;95.81;76828.31;5299722;28;20089;-85
2023/10/03 08:29:33;;;;;;;8.57;5.30;;;;;;;-145.79;95.15;76826.22;5300377;28;20024;-83
2023/10/03 08:32:05;;;;;;;6.90;3.75;;;;;;;-145.79;93.72;76834.69;5309728;28;20090;-81
2023/10/03 08:34:43;;;;;;;5.18;3.45;;;;;;;-145.79;94.01;76847.41;5300193;28;20028;-80
2023/10/03 08:37:21;;;;;;;5.63;3.53;;;;;;;-145.79;94.61;76845.28;5299549;28;20032;-83
2023/10/03 08:39:52;;;;;;;5.63;3.35;;;;;;;-145.79;94.88;76847.41;5292042;28;20024;-81
2023/10/03 08:42:34;;;;;;;7.25;3.25;;;;;;;-145.79;94.18;76851.63;5292581;28;20028;-80
2023/10/03 08:45:22;;;;;;;7.20;3.65;;;;;;;-145.79;93.19;76849.53;5290023;28;20108;-82
2023/10/03 08:47:54;;;;;;;8.75;2.88;;;;;;;-145.79;93.63;76862.25;5289179;28;20036;-81
2023/10/03 08:50:34;;;;;;;5.93;2.80;;;;;;;-145.79;92.97;76874.94;5285874;28;20029;-81
2023/10/03 08:53:26;;;;;;;6.50;2.65;;;;;;;-145.79;93.01;76855.88;5280702;28;20029;-80
2023/10/03 08:56:03;;;;;;;5.25;2.25;;;;;;;-145.79;92.32;76879.19;5288586;28;20046;-80
2023/10/03 08:58:35;;;;;;;5.47;2.50;;;;;;;-145.79;92.03;76894.03;5288011;28;20024;-80
2023/10/03 09:01:07;;;;;;;6.32;2.10;;;;;;;-145.79;92.37;76889.78;5288154;28;20541;-80
2023/10/03 09:03:47;;;;;;;3.85;1.95;;;;;;;-145.79;92.50;76915.22;5287509;28;20056;-80
2023/10/03 09:06:23;;;;;;;1.80;1.10;;;;;;;-145.79;90.47;76970.31;5274622;28;20032;-81
2023/10/03 09:09:13;;;;;;;2.58;1.40;;;;;;;-145.79;91.87;76970.31;5286091;28;20029;-82
2023/10/03 09:11:45;;;;;;;2.30;0.70;;;;;;;-145.79;91.30;76987.28;5287336;28;20452;-81
2023/10/03 09:14:20;;;;;;;1.85;0.98;;;;;;;-145.79;91.42;76976.69;5277007;28;20083;-81
2023/10/03 09:16:51;;;;;;;1.37;1.17;;;;;;;-145.79;91.24;76991.53;5279065;28;20044;-80
2023/10/03 09:19:41;;;;;;;3.03;1.02;;;;;;;-145.79;91.55;76995.75;5291077;28;20059;-82
2023/10/03 09:22:26;;;;;;;2.38;1.00;;;;;;;-145.79;91.32;77006.34;5284139;28;20040;-81
2023/10/03 09:24:57;;;;;;;3.55;1.20;;;;;;;-145.79;91.48;77008.47;5277541;28;20033;-82
2023/10/03 09:27:30;;;;;;;2.75;2.05;;;;;;;-145.79;90.50;77016.94;5285901;28;20043;-80
2023/10/03 09:30:10;;;;;;;4.38;1.42;;;;;;;-145.79;90.71;77021.19;5263226;28;20024;-81
2023/10/03 09:32:41;;;;;;;2.92;1.48;;;;;;;-145.79;90.67;77029.66;5280879;28;20042;-82
2023/10/03 09:35:13;;;;;;;3.00;1.30;;;;;;;-145.79;91.24;77036.03;5282608;28;20532;-82
2023/10/03 09:37:48;;;;;;;3.22;1.75;;;;;;;-145.79;90.54;77023.31;5286989;28;20024;-81
2023/10/03 09:40:20;;;;;;;3.05;1.20;;;;;;;-145.79;89.50;77023.31;5285604;28;20033;-81
2023/10/03 09:42:55;;;;;;;3.00;1.65;;;;;;;-145.79;90.64;77021.19;5287655;28;20473;-81
2023/10/03 09:45:26;;;;;;;6.38;2.60;;;;;;;-145.79;91.14;77014.84;5287354;28;20491;-82
2023/10/03 09:47:58;;;;;;;2.65;1.17;;;;;;;-145.79;91.41;77033.91;5287567;28;20028;-81
2023/10/03 09:50:32;;;;;;;3.92;1.48;;;;;;;-145.79;91.86;77021.19;5288807;28;20024;-81
2023/10/03 09:53:06;;;;;;;5.03;1.50;;;;;;;-145.79;91.84;77029.66;5283798;28;20079;-81
2023/10/03 09:55:46;;;;;;;5.32;1.25;;;;;;;-145.79;92.92;77036.03;5281630;28;20025;-82
2023/10/03 09:58:24;;;;;;;13.85;12.50;;;;;;;-145.79;93.35;77072.06;5274635;28;20032;-82
2023/10/03 10:00:55;;;;;;;5.63;4.95;;;;;;;-145.79;93.57;77065.69;5280243;28;20025;-82
2023/10/03 10:03:38;;;;;;;2.80;1.30;;;;;;;-145.79;93.44;77052.97;5283688;28;20245;-82
2023/10/03 10:06:53;;;;;;;23.77;19.85;;;;;;;-145.79;92.90;77055.09;5278651;28;20546;-82
2023/10/03 10:09:29;;;;;;;4.97;2.08;;;;;;;-145.79;92.06;77065.69;5257090;28;20389;-81
2023/10/03 10:12:21;;;;;;;3.83;1.65;;;;;;;-145.79;90.97;77055.09;5285043;28;20071;-79
2023/10/03 10:15:00;;;;;;;5.60;1.70;;;;;;;-145.79;90.79;77072.06;5281560;28;20452;-80
2023/10/03 10:17:45;;;;;;;3.55;1.30;;;;;;;-145.79;90.10;77078.41;5280669;28;20078;-80
2023/10/03 10:20:37;;;;;;;6.38;1.92;;;;;;;-145.79;89.97;77080.53;5282920;28;20031;-80
2023/10/03 10:25:51;;;;;;;8.55;6.78;;;;;;;-145.79;91.94;77097.50;5283458;28;20028;-81
2023/10/03 10:28:27;;;;;;;3.92;1.85;;;;;;;-145.79;92.13;77112.31;5279676;28;20074;-81
2023/10/03 10:31:11;;;;;;;2.83;1.70;;;;;;;-145.79;93.16;77103.84;5283094;28;20032;-81
2023/10/03 10:33:43;;;;;;;3.15;2.13;;;;;;;-145.79;92.69;77103.84;5277413;28;20476;-79
2023/10/03 10:36:14;;;;;;;2.88;1.42;;;;;;;-145.79;92.63;77110.22;5279343;28;20031;-79
2023/10/03 10:38:52;;;;;;;4.13;1.58;;;;;;;-145.79;93.16;77103.84;5283525;28;20455;-82
2023/10/03 10:41:30;;;;;;;3.13;1.15;;;;;;;-145.79;91.85;77118.69;5282936;28;20048;-82
2023/10/03 10:44:08;;;;;;;2.80;2.00;;;;;;;-145.79;91.22;77112.31;5279094;28;20211;-83
2023/10/03 10:46:42;;;;;;;2.90;1.55;;;;;;;-145.79;88.13;77129.28;5283339;28;20067;-84
2023/10/03 10:49:33;;;;;;;4.43;1.27;;;;;;;-145.79;88.68;77139.88;5270271;28;20033;-83
2023/10/03 10:52:13;;;;;;;20.35;18.42;;;;;;;-145.79;88.08;77137.75;5282375;28;20039;-83
2023/10/03 10:54:44;;;;;;;4.00;2.95;;;;;;;-145.79;87.76;77156.84;5282111;28;20028;-80
2023/10/03 10:57:17;;;;;;;2.15;0.80;;;;;;;-145.79;89.93;77195.00;5281969;28;20039;-84
2023/10/03 10:59:48;;;;;;;1.50;0.88;;;;;;;-145.79;92.43;77203.47;5282521;28;20391;-81
2023/10/03 11:02:22;;;;;;;1.90;1.27;;;;;;;-145.79;92.99;77195.00;5281259;28;20024;-85
2023/10/03 11:04:58;;;;;;;2.20;0.90;;;;;;;-145.79;92.44;77209.81;5280551;28;20107;-84
2023/10/03 11:07:31;;;;;;;2.17;0.90;;;;;;;-145.79;92.23;77235.25;5280491;28;20035;-86
2023/10/03 11:10:06;;;;;;;1.45;1.35;;;;;;;-145.79;93.58;77241.63;5280618;28;20032;-84
2023/10/03 11:12:37;;;;;;;1.63;0.70;;;;;;;-145.79;94.39;77271.28;5280438;28;20025;-81
2023/10/03 11:15:12;;;;;;;1.20;0.75;;;;;;;-145.79;95.45;77254.34;5277142;28;20062;-83
2023/10/03 11:17:48;;;;;;;1.17;1.05;;;;;;;-145.79;96.50;77245.84;5279358;28;20025;-82
2023/10/03 11:20:21;;;;;;;2.03;0.73;;;;;;;-145.79;94.76;77258.56;5282930;28;20067;-83
2023/10/03 11:22:53;;;;;;;2.30;0.90;;;;;;;-145.79;96.42;77231.03;5269002;28;20074;-83
2023/10/03 11:25:25;;;;;;;4.57;1.38;;;;;;;-145.79;94.82;77245.84;5283462;28;20174;-85
2023/10/03 11:28:06;;;;;;;1.65;1.10;;;;;;;-145.79;95.31;77211.94;5283061;28;20021;-84
2023/10/03 11:30:37;;;;;;;0.70;0.70;;;;;;;-145.79;95.25;77207.72;5274915;28;20487;-86
2023/10/03 11:33:08;;;;;;;2.22;1.23;;;;;;;-145.79;93.21;77233.16;5283676;28;20143;-85
2023/10/03 11:35:51;;;;;;;2.33;1.70;;;;;;;-145.79;93.72;77228.91;5278226;28;20020;-82
2023/10/03 11:38:23;;;;;;;2.78;1.33;;;;;;;-145.79;93.18;77207.72;5269935;28;20055;-81
2023/10/03 11:40:54;;;;;;;1.85;1.23;;;;;;;-145.79;91.40;77199.22;5276664;28;20187;-83
2023/10/03 11:43:26;;;;;;;4.60;2.58;;;;;;;-145.79;90.91;77201.34;5273544;28;20037;-83
2023/10/03 11:45:57;;;;;;;3.05;2.00;;;;;;;-145.79;90.49;77218.31;5282689;28;20093;-81
2023/10/03 11:48:31;;;;;;;3.70;1.27;;;;;;;-145.79;89.68;77254.34;5282695;28;20056;-83
2023/10/03 11:51:02;;;;;;;5.05;2.20;;;;;;;-145.79;92.96;77271.28;5284101;28;20429;-83
2023/10/03 11:53:33;;;;;;;2.33;1.55;;;;;;;-145.79;94.33;77269.19;5278127;28;20041;-84
2023/10/03 11:56:06;;;;;;;1.98;1.25;;;;;;;-145.79;94.85;77269.19;5274019;28;20033;-84
2023/10/03 11:58:37;;;;;;;3.90;1.48;;;;;;;-145.79;94.86;77275.53;5281543;28;20382;-84
2023/10/03 12:01:08;;;;;;;2.15;1.40;;;;;;;-145.79;95.17;77262.81;5282158;28;20115;-84
2023/10/03 12:03:40;;;;;;;6.47;1.60;;;;;;;-145.79;94.94;77277.66;5281825;28;20066;-84
2023/10/03 12:06:11;;;;;;;3.75;1.85;;;;;;;-145.79;91.98;77315.81;5282666;28;20031;-84
2023/10/03 12:08:43;;;;;;;4.45;1.67;;;;;;;-145.79;92.27;77334.88;5274205;28;20021;-84
2023/10/03 12:11:14;;;;;;;10.50;8.57;;;;;;;-145.79;91.69;77358.19;5280488;28;20025;-84
2023/10/03 12:13:46;;;;;;;9.02;2.38;;;;;;;-145.79;92.87;77332.75;5269684;28;20031;-84
2023/10/03 12:16:17;;;;;;;7.35;5.22;;;;;;;-145.79;92.03;77373.03;5269563;28;20028;-85
2023/10/03 12:18:49;;;;;;;8.40;3.08;;;;;;;-145.79;94.56;77349.72;5276549;28;20516;-84
2023/10/03 12:21:21;;;;;;;4.45;2.20;;;;;;;-145.79;93.32;77358.19;5282442;28;20045;-84
2023/10/03 12:23:52;;;;;;;4.70;2.30;;;;;;;-145.79;91.99;77353.97;5276587;28;20098;-85
2023/10/03 12:26:24;;;;;;;5.80;2.35;;;;;;;-145.79;89.45;77398.47;5270578;28;20047;-78
2023/10/03 12:28:57;;;;;;;3.80;2.40;;;;;;;-145.79;91.57;77381.50;5284211;28;20028;-84
2023/10/03 12:31:29;;;;;;;4.00;2.40;;;;;;;-145.79;91.64;77413.31;5280732;28;20036;-83
2023/10/03 12:34:01;;;;;;;4.88;2.28;;;;;;;-145.79;92.25;77377.28;5280798;28;20376;-83
2023/10/03 12:36:34;;;;;;;5.43;2.25;;;;;;;-145.79;91.47;77362.44;5279673;28;20031;-82
2023/10/03 12:39:10;;;;;;;2.78;2.10;;;;;;;-145.79;90.92;77326.41;5283923;28;20052;-82
2023/10/03 12:41:42;;;;;;;5.38;2.00;;;;;;;-145.79;88.74;77334.88;5285106;28;20490;-82
2023/10/03 12:44:13;;;;;;;4.88;2.15;;;;;;;-145.79;87.42;77330.66;5282160;28;20029;-83
2023/10/03 12:46:44;;;;;;;5.68;2.40;;;;;;;-145.79;87.65;77322.16;5280015;28;20090;-83
2023/10/03 12:49:16;;;;;;;7.68;3.28;;;;;;;-145.79;86.14;77298.84;5271262;28;20184;-84
2023/10/03 12:51:47;;;;;;;6.80;3.53;;;;;;;-145.79;84.55;77303.09;5281468;28;20105;-83
2023/10/03 12:54:18;;;;;;;5.65;2.40;;;;;;;-145.79;84.71;77307.31;5275282;28;20043;-86
2023/10/03 12:56:50;;;;;;;3.38;2.22;;;;;;;-145.79;84.29;77305.22;5277703;28;20040;-85
2023/10/03 12:59:21;;;;;;;5.03;2.58;;;;;;;-145.79;84.42;77300.97;5284953;28;20549;-84
2023/10/03 13:01:52;;;;;;;4.25;2.17;;;;;;;-145.79;84.66;77279.78;5275188;28;20365;-85
2023/10/03 13:04:27;;;;;;;6.15;2.50;;;;;;;-145.79;81.05;77322.16;5278396;28;20029;-84
2023/10/03 13:06:59;;;;;;;4.80;2.72;;;;;;;-145.79;81.63;77320.03;5275394;28;20028;-81
2023/10/03 13:09:30;;;;;;;6.32;4.78;;;;;;;-145.79;81.86;77320.03;5280681;28;20024;-84
2023/10/03 13:12:03;;;;;;;4.85;2.60;;;;;;;-145.79;81.58;77305.22;5272305;28;20114;-83
2023/10/03 13:14:35;;;;;;;6.28;2.53;;;;;;;-145.79;80.03;77345.47;5266569;28;20031;-82
2023/10/03 13:17:09;;;;;;;5.47;2.67;;;;;;;-145.79;83.97;77379.41;5282081;28;20111;-82
2023/10/03 13:19:41;;;;;;;7.00;3.90;;;;;;;-145.79;85.90;77415.44;5284074;28;20467;-81
2023/10/03 13:22:12;;;;;;;7.05;2.58;;;;;;;-145.79;86.59;77440.88;5280204;28;20314;-81
2023/10/03 13:24:43;;;;;;;7.43;2.47;;;;;;;-145.79;87.88;77483.25;5281615;28;20033;-80
2023/10/03 13:27:15;;;;;;;4.38;2.22;;;;;;;-145.79;89.06;77510.81;5265981;28;20100;-81
2023/10/03 13:29:46;;;;;;;4.50;2.70;;;;;;;-145.79;91.20;77529.88;5279714;28;20032;-78
2023/10/03 13:32:20;;;;;;;3.88;2.45;;;;;;;-145.79;92.61;77495.97;5273925;28;20119;-80
2023/10/03 13:34:51;;;;;;;4.55;2.97;;;;;;;-145.79;93.44;77483.25;5276336;28;20020;-80
2023/10/03 13:37:24;;;;;;;4.10;2.40;;;;;;;-145.79;91.09;77495.97;5278252;28;20574;-80
2023/10/03 13:39:56;;;;;;;3.30;1.90;;;;;;;-145.79;89.66;77510.81;5275541;28;20016;-76
2023/10/03 13:42:28;;;;;;;4.20;2.10;;;;;;;-145.79;90.32;77481.13;5279565;28;20074;-77
2023/10/03 13:45:00;;;;;;;4.53;2.33;;;;;;;-145.79;88.83;77487.50;5282440;28;20017;-79
2023/10/03 13:47:31;;;;;;;4.88;2.17;;;;;;;-145.79;87.97;77491.75;5267780;28;20025;-80
2023/10/03 13:50:03;;;;;;;7.25;3.05;;;;;;;-145.79;88.71;77491.75;5283486;28;20020;-77
2023/10/03 13:52:37;;;;;;;6.03;2.50;;;;;;;-145.79;88.73;77506.56;5277706;28;20036;-78
2023/10/03 13:55:10;;;;;;;4.68;2.28;;;;;;;-145.79;86.14;77534.13;5278125;28;20028;-79
2023/10/03 13:57:42;;;;;;;5.90;2.40;;;;;;;-145.79;86.26;77555.31;5275941;28;20521;-78
2023/10/03 14:00:14;;;;;;;5.18;2.35;;;;;;;-145.79;87.19;77568.03;5280005;28;20032;-80
2023/10/03 14:02:47;;;;;;;4.65;2.20;;;;;;;-145.79;87.46;77585.00;5276637;28;20310;-78
2023/10/03 14:05:19;;;;;;;6.43;3.17;;;;;;;-145.79;87.77;77572.28;5271378;28;20404;-77
2023/10/03 14:07:50;;;;;;;7.93;2.78;;;;;;;-145.79;87.00;77576.53;5273697;28;20490;-76
2023/10/03 14:10:22;;;;;;;5.15;2.40;;;;;;;-145.79;87.43;77561.69;5275257;28;20073;-77
2023/10/03 14:12:54;;;;;;;6.03;3.13;;;;;;;-145.79;87.06;77536.25;5280746;28;20066;-80
2023/10/03 14:15:27;;;;;;;4.60;2.50;;;;;;;-145.79;87.27;77504.47;5278399;28;20129;-80
2023/10/03 14:18:01;;;;;;;5.15;2.53;;;;;;;-145.79;86.11;77487.50;5282686;28;20051;-74
2023/10/03 14:20:32;;;;;;;5.80;2.30;;;;;;;-145.79;80.58;77521.41;5283502;28;20464;-79
2023/10/03 14:23:04;;;;;;;5.63;2.40;;;;;;;-145.79;81.17;77493.84;5281464;28;20044;-79
2023/10/03 14:25:35;;;;;;;4.97;2.47;;;;;;;-145.79;80.50;77500.22;5280363;28;20047;-78
2023/10/03 14:28:08;;;;;;;4.15;2.28;;;;;;;-145.79;80.14;77498.09;5282123;28;20048;-81
2023/10/03 14:30:40;;;;;;;5.60;2.63;;;;;;;-145.79;79.25;77476.91;5285442;28;20032;-80
2023/10/03 14:33:11;;;;;;;4.63;2.20;;;;;;;-145.79;79.81;77468.41;5280614;28;20042;-79
2023/10/03 14:35:43;;;;;;;5.10;2.38;;;;;;;-145.79;78.87;77481.13;5276475;28;20102;-76
2023/10/03 14:38:14;;;;;;;3.55;2.25;;;;;;;-145.79;78.97;77491.75;5273339;28;20028;-77
2023/10/03 14:40:47;;;;;;;5.55;2.70;;;;;;;-145.79;79.36;77512.94;5279017;28;20024;-80
2023/10/03 14:43:18;;;;;;;5.65;2.28;;;;;;;-145.79;79.96;77508.69;5272470;28;20029;-79
2023/10/03 14:45:50;;;;;;;6.20;2.65;;;;;;;-145.79;80.22;77508.69;5268866;28;20131;-78
2023/10/03 14:48:25;;;;;;;9.68;3.83;;;;;;;-145.79;80.88;77483.25;5275227;28;20024;-80
2023/10/03 14:50:57;;;;;;;4.60;2.40;;;;;;;-145.79;81.14;77491.75;5281316;28;20414;-81
2023/10/03 14:53:29;;;;;;;4.10;2.40;;;;;;;-145.79;78.78;77487.50;5270422;28;20036;-79
2023/10/03 14:56:04;;;;;;;3.80;2.10;;;;;;;-145.79;77.82;77491.75;5270167;28;20028;-79
2023/10/03 14:58:38;;;;;;;4.88;2.10;;;;;;;-145.79;73.08;77493.84;5277378;28;20479;-82
2023/10/03 15:01:12;;;;;;;6.65;2.78;;;;;;;-145.79;72.23;77489.63;5275449;28;20040;-79
2023/10/03 15:03:43;;;;;;;4.95;2.55;;;;;;;-145.79;69.23;77487.50;5282678;28;20039;-78
2023/10/03 15:06:14;;;;;;;4.78;2.13;;;;;;;-145.79;68.06;77508.69;5279730;28;20025;-84
2023/10/03 15:08:46;;;;;;;3.72;2.25;;;;;;;-145.79;69.55;77487.50;5268548;28;20029;-78
2023/10/03 15:11:17;;;;;;;4.03;2.30;;;;;;;-145.79;67.85;77506.56;5280195;28;20036;-76
2023/10/03 15:13:49;;;;;;;3.70;2.00;;;;;;;-145.79;67.36;77512.94;5275624;28;20027;-76
2023/10/03 15:16:22;;;;;;;3.58;2.35;;;;;;;-145.79;68.25;77523.53;5274500;28;20368;-80
2023/10/03 15:18:54;;;;;;;5.95;2.85;;;;;;;-145.79;68.36;77519.28;5268591;28;20013;-80
2023/10/03 15:21:26;;;;;;;3.55;2.28;;;;;;;-145.79;69.06;77517.16;5270949;28;20074;-80
2023/10/03 15:23:58;;;;;;;4.57;2.25;;;;;;;-145.79;68.73;77510.81;5283473;28;20024;-81
2023/10/03 15:26:29;;;;;;;3.80;2.38;;;;;;;-145.79;69.46;77512.94;5282770;28;20081;-81
2023/10/03 15:29:02;;;;;;;4.72;1.98;;;;;;;-145.79;69.46;77529.88;5280864;28;20020;-82
2023/10/03 15:31:35;;;;;;;3.67;2.20;;;;;;;-145.79;70.54;77512.94;5283377;28;20089;-83
2023/10/03 15:34:08;;;;;;;3.42;1.90;;;;;;;-145.79;69.76;77510.81;5278575;28;20079;-84
2023/10/03 15:36:39;;;;;;;4.38;2.65;;;;;;;-145.79;70.06;77527.78;5280298;28;20036;-84
2023/10/03 15:39:12;;;;;;;5.65;2.80;;;;;;;-145.79;70.95;77529.88;5285563;28;20391;-84
2023/10/03 15:41:44;;;;;;;4.57;2.58;;;;;;;-145.79;70.44;77529.88;5282525;28;20044;-83
2023/10/03 15:44:19;;;;;;;5.63;4.35;;;;;;;-145.79;70.95;77534.13;5278547;28;20045;-85
2023/10/03 15:46:50;;;;;;;5.55;2.40;;;;;;;-145.79;68.91;77538.38;5286987;28;20020;-83
2023/10/03 15:49:23;;;;;;;5.30;2.50;;;;;;;-145.79;68.91;77555.31;5283037;28;20112;-79
2023/10/03 15:51:55;;;;;;;5.13;4.15;;;;;;;-145.79;68.08;77568.03;5287382;28;20079;-83
2023/10/03 15:54:26;;;;;;;7.40;5.43;;;;;;;-145.79;69.24;77572.28;5279916;28;20021;-83
2023/10/03 15:56:57;;;;;;;5.07;2.55;;;;;;;-145.79;69.58;77568.03;5284933;28;20063;-83
2023/10/03 15:59:29;;;;;;;4.15;2.67;;;;;;;-145.79;68.82;77591.38;5279017;28;20058;-80
2023/10/03 16:02:03;;;;;;;5.03;2.65;;;;;;;-145.79;68.14;77618.91;5285520;28;20032;-83
2023/10/03 16:04:36;;;;;;;5.50;2.35;;;;;;;-145.79;68.62;77606.19;5286570;28;20031;-83
2023/10/03 16:07:07;;;;;;;3.38;2.30;;;;;;;-145.79;69.14;77595.59;5286663;28;20432;-83
2023/10/03 16:09:43;;;;;;;5.18;3.45;;;;;;;-145.79;68.44;77608.31;5285126;28;20151;-75
2023/10/03 16:12:15;;;;;;;4.90;2.53;;;;;;;-145.79;68.44;77614.69;5275878;28;20036;-71
2023/10/03 16:14:46;;;;;;;4.13;2.65;;;;;;;-145.79;68.17;77627.41;5285773;28;20388;-70
2023/10/03 16:17:18;;;;;;;4.85;2.97;;;;;;;-145.79;68.81;77640.13;5285029;28;20025;-71
2023/10/03 16:19:49;;;;;;;3.70;2.60;;;;;;;-145.79;68.63;77650.72;5283813;28;20020;-69
2023/10/03 16:22:20;;;;;;;3.58;2.13;;;;;;;-145.79;68.02;77669.78;5284923;28;20102;-67
2023/10/03 16:24:52;;;;;;;3.67;2.58;;;;;;;-145.79;68.21;77699.47;5280605;28;20048;-68
2023/10/03 16:27:24;;;;;;;4.15;2.53;;;;;;;-145.79;67.98;77695.22;5284695;28;20703;-67
2023/10/03 16:29:56;;;;;;;4.38;2.22;;;;;;;-145.79;67.90;77697.34;5279552;28;20055;-66
2023/10/03 16:32:28;;;;;;;4.20;2.90;;;;;;;-145.79;68.15;77695.22;5277654;28;20051;-68
2023/10/03 16:35:00;;;;;;;4.78;3.30;;;;;;;-145.79;68.19;77701.59;5285914;28;20016;-69
2023/10/03 16:37:31;;;;;;;3.47;2.00;;;;;;;-145.79;68.58;77695.22;5282871;28;20095;-69
2023/10/03 16:40:03;;;;;;;3.55;2.35;;;;;;;-145.79;68.39;77695.22;5274849;28;20100;-68
2023/10/03 16:42:36;;;;;;;4.40;1.90;;;;;;;-145.79;68.15;77701.59;5282852;28;20065;-69
2023/10/03 16:45:09;;;;;;;3.20;2.45;;;;;;;-145.79;67.62;77716.44;5276500;28;20027;-67
2023/10/03 16:47:41;;;;;;;4.03;2.15;;;;;;;-145.79;68.34;77722.78;5275872;28;20028;-67
2023/10/03 16:50:13;;;;;;;6.80;5.50;;;;;;;-145.79;68.76;77735.50;5274761;28;20033;-68
2023/10/03 16:52:46;;;;;;;5.60;2.55;;;;;;;-145.79;69.01;77744.00;5278624;28;20051;-67
